sensor_id;sensor_type;location;lat;lon;timestamp;P1;durP1;ratioP1;P2;durP2;ratioP2
19780;SDS011;10050;55.492;13.506;2023-09-19T00:01:42;5.60;;;3.67;;
19780;SDS011;10050;55.492;13.506;2023-09-19T00:04:10;9.37;;;4.20;;
19780;SDS011;10050;55.492;13.506;2023-09-19T00:06:39;4.87;;;3.47;;
19780;SDS011;10050;55.492;13.506;2023-09-19T00:09:05;4.87;;;3.27;;
19780;SDS011;10050;55.492;13.506;2023-09-19T00:11:35;6.20;;;4.10;;
19780;SDS011;10050;55.492;13.506;2023-09-19T00:14:02;5.17;;;3.90;;
19780;SDS011;10050;55.492;13.506;2023-09-19T00:16:28;7.73;;;3.93;;
19780;SDS011;10050;55.492;13.506;2023-09-19T00:18:53;5.93;;;3.93;;
19780;SDS011;10050;55.492;13.506;2023-09-19T00:21:20;4.27;;;3.27;;
19780;SDS011;10050;55.492;13.506;2023-09-19T00:23:45;6.03;;;3.37;;
19780;SDS011;10050;55.492;13.506;2023-09-19T00:26:11;7.30;;;4.53;;
19780;SDS011;10050;55.492;13.506;2023-09-19T00:28:37;5.07;;;3.13;;
19780;SDS011;10050;55.492;13.506;2023-09-19T00:31:04;9.40;;;3.37;;
19780;SDS011;10050;55.492;13.506;2023-09-19T00:33:33;4.07;;;3.20;;
19780;SDS011;10050;55.492;13.506;2023-09-19T00:35:59;6.47;;;3.57;;
19780;SDS011;10050;55.492;13.506;2023-09-19T00:38:27;5.73;;;3.00;;
19780;SDS011;10050;55.492;13.506;2023-09-19T00:40:56;6.03;;;3.40;;
19780;SDS011;10050;55.492;13.506;2023-09-19T00:43:24;7.10;;;3.50;;
19780;SDS011;10050;55.492;13.506;2023-09-19T00:45:52;4.37;;;2.93;;
19780;SDS011;10050;55.492;13.506;2023-09-19T00:48:19;7.63;;;3.50;;
19780;SDS011;10050;55.492;13.506;2023-09-19T00:50:46;4.50;;;3.60;;
19780;SDS011;10050;55.492;13.506;2023-09-19T00:53:14;5.27;;;3.00;;
19780;SDS011;10050;55.492;13.506;2023-09-19T00:55:43;2.93;;;2.67;;
19780;SDS011;10050;55.492;13.506;2023-09-19T00:58:10;6.27;;;3.10;;
19780;SDS011;10050;55.492;13.506;2023-09-19T01:00:36;4.90;;;2.90;;
19780;SDS011;10050;55.492;13.506;2023-09-19T01:03:03;5.17;;;2.97;;
19780;SDS011;10050;55.492;13.506;2023-09-19T01:05:31;5.63;;;2.97;;
19780;SDS011;10050;55.492;13.506;2023-09-19T01:07:58;3.03;;;2.77;;
19780;SDS011;10050;55.492;13.506;2023-09-19T01:10:24;4.67;;;3.33;;
19780;SDS011;10050;55.492;13.506;2023-09-19T01:21:04;3.73;;;3.03;;
19780;SDS011;10050;55.492;13.506;2023-09-19T01:29:46;7.63;;;3.13;;
19780;SDS011;10050;55.492;13.506;2023-09-19T01:32:18;8.00;;;3.70;;
19780;SDS011;10050;55.492;13.506;2023-09-19T01:34:52;5.13;;;2.93;;
19780;SDS011;10050;55.492;13.506;2023-09-19T01:37:30;7.83;;;3.43;;
19780;SDS011;10050;55.492;13.506;2023-09-19T01:42:35;3.30;;;3.00;;
19780;SDS011;10050;55.492;13.506;2023-09-19T01:50:54;3.17;;;2.83;;
19780;SDS011;10050;55.492;13.506;2023-09-19T01:53:25;4.43;;;3.20;;
19780;SDS011;10050;55.492;13.506;2023-09-19T01:59:13;3.87;;;2.40;;
19780;SDS011;10050;55.492;13.506;2023-09-19T02:01:52;5.83;;;3.00;;
19780;SDS011;10050;55.492;13.506;2023-09-19T02:04:32;7.13;;;2.87;;
19780;SDS011;10050;55.492;13.506;2023-09-19T02:07:00;5.83;;;2.13;;
19780;SDS011;10050;55.492;13.506;2023-09-19T02:09:33;3.97;;;2.43;;
19780;SDS011;10050;55.492;13.506;2023-09-19T02:12:03;7.53;;;2.70;;
19780;SDS011;10050;55.492;13.506;2023-09-19T02:15:12;5.10;;;2.80;;
19780;SDS011;10050;55.492;13.506;2023-09-19T02:17:41;3.30;;;2.30;;
19780;SDS011;10050;55.492;13.506;2023-09-19T02:20:10;3.13;;;2.13;;
19780;SDS011;10050;55.492;13.506;2023-09-19T02:22:41;3.90;;;2.63;;
19780;SDS011;10050;55.492;13.506;2023-09-19T02:25:09;4.73;;;2.57;;
19780;SDS011;10050;55.492;13.506;2023-09-19T02:27:34;3.40;;;2.37;;
19780;SDS011;10050;55.492;13.506;2023-09-19T02:30:01;4.90;;;2.10;;
19780;SDS011;10050;55.492;13.506;2023-09-19T02:32:27;3.07;;;2.40;;
19780;SDS011;10050;55.492;13.506;2023-09-19T02:34:55;4.57;;;2.13;;
19780;SDS011;10050;55.492;13.506;2023-09-19T02:37:20;2.80;;;1.80;;
19780;SDS011;10050;55.492;13.506;2023-09-19T02:39:46;3.03;;;2.30;;
19780;SDS011;10050;55.492;13.506;2023-09-19T02:42:12;8.83;;;2.57;;
19780;SDS011;10050;55.492;13.506;2023-09-19T02:44:39;5.67;;;2.07;;
19780;SDS011;10050;55.492;13.506;2023-09-19T02:47:08;4.27;;;2.00;;
19780;SDS011;10050;55.492;13.506;2023-09-19T02:49:34;3.13;;;1.80;;
19780;SDS011;10050;55.492;13.506;2023-09-19T02:52:00;4.37;;;2.00;;
19780;SDS011;10050;55.492;13.506;2023-09-19T02:54:28;2.77;;;1.70;;
19780;SDS011;10050;55.492;13.506;2023-09-19T02:56:57;1.93;;;1.50;;
19780;SDS011;10050;55.492;13.506;2023-09-19T02:59:32;3.77;;;1.87;;
19780;SDS011;10050;55.492;13.506;2023-09-19T03:01:58;3.47;;;1.40;;
19780;SDS011;10050;55.492;13.506;2023-09-19T03:04:25;3.97;;;1.57;;
19780;SDS011;10050;55.492;13.506;2023-09-19T03:06:51;4.57;;;1.63;;
19780;SDS011;10050;55.492;13.506;2023-09-19T03:09:18;2.27;;;1.60;;
19780;SDS011;10050;55.492;13.506;2023-09-19T03:11:44;2.17;;;1.37;;
19780;SDS011;10050;55.492;13.506;2023-09-19T03:14:11;3.63;;;1.50;;
19780;SDS011;10050;55.492;13.506;2023-09-19T03:16:37;1.87;;;1.30;;
19780;SDS011;10050;55.492;13.506;2023-09-19T03:19:03;1.80;;;1.70;;
19780;SDS011;10050;55.492;13.506;2023-09-19T03:21:28;1.93;;;1.40;;
19780;SDS011;10050;55.492;13.506;2023-09-19T03:23:55;3.73;;;1.50;;
19780;SDS011;10050;55.492;13.506;2023-09-19T03:26:21;3.97;;;1.93;;
19780;SDS011;10050;55.492;13.506;2023-09-19T03:28:46;3.40;;;1.40;;
19780;SDS011;10050;55.492;13.506;2023-09-19T03:31:12;2.97;;;1.57;;
19780;SDS011;10050;55.492;13.506;2023-09-19T03:33:40;3.93;;;1.77;;
19780;SDS011;10050;55.492;13.506;2023-09-19T03:36:06;3.80;;;1.70;;
19780;SDS011;10050;55.492;13.506;2023-09-19T03:38:35;3.23;;;1.70;;
19780;SDS011;10050;55.492;13.506;2023-09-19T03:41:01;3.23;;;1.97;;
19780;SDS011;10050;55.492;13.506;2023-09-19T03:43:28;2.90;;;1.70;;
19780;SDS011;10050;55.492;13.506;2023-09-19T03:45:54;3.60;;;1.70;;
19780;SDS011;10050;55.492;13.506;2023-09-19T03:48:21;5.13;;;1.70;;
19780;SDS011;10050;55.492;13.506;2023-09-19T03:50:50;4.10;;;1.90;;
19780;SDS011;10050;55.492;13.506;2023-09-19T04:03:02;3.40;;;1.83;;
19780;SDS011;10050;55.492;13.506;2023-09-19T04:05:33;2.23;;;1.80;;
19780;SDS011;10050;55.492;13.506;2023-09-19T04:07:59;3.43;;;1.63;;
19780;SDS011;10050;55.492;13.506;2023-09-19T04:10:24;2.53;;;1.80;;
19780;SDS011;10050;55.492;13.506;2023-09-19T04:12:51;2.80;;;1.90;;
19780;SDS011;10050;55.492;13.506;2023-09-19T04:15:18;3.87;;;1.70;;
19780;SDS011;10050;55.492;13.506;2023-09-19T04:17:48;4.63;;;2.10;;
19780;SDS011;10050;55.492;13.506;2023-09-19T04:20:14;3.33;;;1.60;;
19780;SDS011;10050;55.492;13.506;2023-09-19T04:22:41;2.60;;;1.53;;
19780;SDS011;10050;55.492;13.506;2023-09-19T04:25:06;2.57;;;1.50;;
19780;SDS011;10050;55.492;13.506;2023-09-19T04:27:33;5.27;;;2.10;;
19780;SDS011;10050;55.492;13.506;2023-09-19T04:29:59;2.30;;;1.60;;
19780;SDS011;10050;55.492;13.506;2023-09-19T04:32:28;3.07;;;1.70;;
19780;SDS011;10050;55.492;13.506;2023-09-19T04:34:54;4.67;;;1.77;;
19780;SDS011;10050;55.492;13.506;2023-09-19T04:37:24;2.20;;;1.50;;
19780;SDS011;10050;55.492;13.506;2023-09-19T04:39:51;4.37;;;1.90;;
19780;SDS011;10050;55.492;13.506;2023-09-19T04:42:16;3.03;;;1.70;;
19780;SDS011;10050;55.492;13.506;2023-09-19T04:44:45;4.40;;;1.80;;
19780;SDS011;10050;55.492;13.506;2023-09-19T04:47:14;5.07;;;1.90;;
19780;SDS011;10050;55.492;13.506;2023-09-19T04:49:43;6.13;;;1.70;;
19780;SDS011;10050;55.492;13.506;2023-09-19T04:52:09;3.93;;;1.67;;
19780;SDS011;10050;55.492;13.506;2023-09-19T04:54:34;4.23;;;1.60;;
19780;SDS011;10050;55.492;13.506;2023-09-19T04:57:00;5.03;;;1.73;;
19780;SDS011;10050;55.492;13.506;2023-09-19T04:59:26;3.27;;;1.90;;
19780;SDS011;10050;55.492;13.506;2023-09-19T05:01:53;3.10;;;1.67;;
19780;SDS011;10050;55.492;13.506;2023-09-19T05:04:19;2.40;;;1.97;;
19780;SDS011;10050;55.492;13.506;2023-09-19T05:06:44;4.27;;;1.83;;
19780;SDS011;10050;55.492;13.506;2023-09-19T05:09:10;4.40;;;1.87;;
19780;SDS011;10050;55.492;13.506;2023-09-19T05:11:38;7.07;;;2.03;;
19780;SDS011;10050;55.492;13.506;2023-09-19T05:14:04;5.03;;;1.63;;
19780;SDS011;10050;55.492;13.506;2023-09-19T05:16:29;6.93;;;2.03;;
19780;SDS011;10050;55.492;13.506;2023-09-19T05:18:56;3.50;;;1.70;;
19780;SDS011;10050;55.492;13.506;2023-09-19T05:21:24;5.60;;;2.17;;
19780;SDS011;10050;55.492;13.506;2023-09-19T05:23:53;4.60;;;1.70;;
19780;SDS011;10050;55.492;13.506;2023-09-19T05:26:19;4.07;;;1.83;;
19780;SDS011;10050;55.492;13.506;2023-09-19T05:28:45;5.80;;;1.87;;
19780;SDS011;10050;55.492;13.506;2023-09-19T05:31:13;4.77;;;1.70;;
19780;SDS011;10050;55.492;13.506;2023-09-19T05:33:40;5.37;;;1.90;;
19780;SDS011;10050;55.492;13.506;2023-09-19T05:36:07;8.80;;;2.17;;
19780;SDS011;10050;55.492;13.506;2023-09-19T05:38:37;7.60;;;2.27;;
19780;SDS011;10050;55.492;13.506;2023-09-19T05:41:05;9.80;;;2.03;;
19780;SDS011;10050;55.492;13.506;2023-09-19T05:43:33;5.43;;;2.07;;
19780;SDS011;10050;55.492;13.506;2023-09-19T05:45:59;4.77;;;1.90;;
19780;SDS011;10050;55.492;13.506;2023-09-19T05:48:25;6.43;;;2.13;;
19780;SDS011;10050;55.492;13.506;2023-09-19T05:50:51;3.17;;;1.80;;
19780;SDS011;10050;55.492;13.506;2023-09-19T05:53:17;6.03;;;1.80;;
19780;SDS011;10050;55.492;13.506;2023-09-19T05:55:43;7.17;;;1.90;;
19780;SDS011;10050;55.492;13.506;2023-09-19T05:58:09;6.07;;;1.73;;
19780;SDS011;10050;55.492;13.506;2023-09-19T06:00:35;7.60;;;1.87;;
19780;SDS011;10050;55.492;13.506;2023-09-19T06:03:03;3.73;;;2.07;;
19780;SDS011;10050;55.492;13.506;2023-09-19T06:05:28;5.67;;;2.60;;
19780;SDS011;10050;55.492;13.506;2023-09-19T06:07:59;4.17;;;1.60;;
19780;SDS011;10050;55.492;13.506;2023-09-19T06:10:26;9.80;;;2.63;;
19780;SDS011;10050;55.492;13.506;2023-09-19T06:12:53;5.17;;;2.27;;
19780;SDS011;10050;55.492;13.506;2023-09-19T06:15:20;5.97;;;2.30;;
19780;SDS011;10050;55.492;13.506;2023-09-19T06:17:50;7.63;;;2.07;;
19780;SDS011;10050;55.492;13.506;2023-09-19T06:20:17;7.13;;;2.10;;
19780;SDS011;10050;55.492;13.506;2023-09-19T06:22:45;6.33;;;2.10;;
19780;SDS011;10050;55.492;13.506;2023-09-19T06:25:14;5.93;;;1.90;;
19780;SDS011;10050;55.492;13.506;2023-09-19T06:27:51;5.67;;;2.13;;
19780;SDS011;10050;55.492;13.506;2023-09-19T06:30:18;7.03;;;2.13;;
19780;SDS011;10050;55.492;13.506;2023-09-19T06:32:46;8.87;;;2.50;;
19780;SDS011;10050;55.492;13.506;2023-09-19T06:35:12;6.87;;;2.30;;
19780;SDS011;10050;55.492;13.506;2023-09-19T06:37:39;7.50;;;2.53;;
19780;SDS011;10050;55.492;13.506;2023-09-19T06:40:09;8.13;;;1.97;;
19780;SDS011;10050;55.492;13.506;2023-09-19T06:43:12;4.43;;;1.97;;
19780;SDS011;10050;55.492;13.506;2023-09-19T06:45:31;5.10;;;2.23;;
19780;SDS011;10050;55.492;13.506;2023-09-19T06:47:57;5.70;;;1.80;;
19780;SDS011;10050;55.492;13.506;2023-09-19T06:50:25;5.00;;;2.00;;
19780;SDS011;10050;55.492;13.506;2023-09-19T06:52:54;2.33;;;1.57;;
19780;SDS011;10050;55.492;13.506;2023-09-19T06:55:22;3.77;;;1.97;;
19780;SDS011;10050;55.492;13.506;2023-09-19T06:57:52;8.37;;;2.50;;
19780;SDS011;10050;55.492;13.506;2023-09-19T07:00:22;6.90;;;2.00;;
19780;SDS011;10050;55.492;13.506;2023-09-19T07:03:01;4.07;;;2.30;;
19780;SDS011;10050;55.492;13.506;2023-09-19T07:05:36;5.27;;;1.97;;
19780;SDS011;10050;55.492;13.506;2023-09-19T07:08:04;5.43;;;1.90;;
19780;SDS011;10050;55.492;13.506;2023-09-19T07:10:34;8.37;;;2.23;;
19780;SDS011;10050;55.492;13.506;2023-09-19T07:13:00;3.60;;;1.97;;
19780;SDS011;10050;55.492;13.506;2023-09-19T07:15:33;5.97;;;2.10;;
19780;SDS011;10050;55.492;13.506;2023-09-19T07:18:01;3.60;;;1.90;;
19780;SDS011;10050;55.492;13.506;2023-09-19T07:20:27;3.20;;;2.13;;
19780;SDS011;10050;55.492;13.506;2023-09-19T07:22:56;4.73;;;1.97;;
19780;SDS011;10050;55.492;13.506;2023-09-19T07:25:25;6.37;;;2.07;;
19780;SDS011;10050;55.492;13.506;2023-09-19T07:27:52;5.23;;;1.93;;
19780;SDS011;10050;55.492;13.506;2023-09-19T07:30:19;6.90;;;2.20;;
19780;SDS011;10050;55.492;13.506;2023-09-19T07:32:45;3.63;;;2.07;;
19780;SDS011;10050;55.492;13.506;2023-09-19T07:35:11;7.93;;;2.67;;
19780;SDS011;10050;55.492;13.506;2023-09-19T07:37:37;5.07;;;2.20;;
19780;SDS011;10050;55.492;13.506;2023-09-19T07:40:03;7.20;;;2.40;;
19780;SDS011;10050;55.492;13.506;2023-09-19T07:42:32;3.33;;;1.90;;
19780;SDS011;10050;55.492;13.506;2023-09-19T07:45:00;4.77;;;2.13;;
19780;SDS011;10050;55.492;13.506;2023-09-19T07:47:26;5.87;;;2.17;;
19780;SDS011;10050;55.492;13.506;2023-09-19T07:49:52;7.57;;;2.43;;
19780;SDS011;10050;55.492;13.506;2023-09-19T07:52:20;6.17;;;2.77;;
19780;SDS011;10050;55.492;13.506;2023-09-19T07:54:48;5.00;;;1.87;;
19780;SDS011;10050;55.492;13.506;2023-09-19T07:57:17;7.63;;;2.40;;
19780;SDS011;10050;55.492;13.506;2023-09-19T07:59:43;6.83;;;2.47;;
19780;SDS011;10050;55.492;13.506;2023-09-19T08:02:08;8.13;;;2.50;;
19780;SDS011;10050;55.492;13.506;2023-09-19T08:04:41;10.90;;;2.57;;
19780;SDS011;10050;55.492;13.506;2023-09-19T08:07:07;6.33;;;2.17;;
19780;SDS011;10050;55.492;13.506;2023-09-19T08:09:33;7.27;;;2.80;;
19780;SDS011;10050;55.492;13.506;2023-09-19T08:12:00;6.53;;;2.27;;
19780;SDS011;10050;55.492;13.506;2023-09-19T08:14:30;6.63;;;2.50;;
19780;SDS011;10050;55.492;13.506;2023-09-19T08:16:56;6.80;;;2.30;;
19780;SDS011;10050;55.492;13.506;2023-09-19T08:19:23;5.70;;;2.50;;
19780;SDS011;10050;55.492;13.506;2023-09-19T08:21:54;7.23;;;2.17;;
19780;SDS011;10050;55.492;13.506;2023-09-19T08:24:24;7.17;;;2.37;;
19780;SDS011;10050;55.492;13.506;2023-09-19T08:26:54;5.13;;;2.63;;
19780;SDS011;10050;55.492;13.506;2023-09-19T08:29:20;5.73;;;2.50;;
19780;SDS011;10050;55.492;13.506;2023-09-19T08:31:52;7.77;;;2.07;;
19780;SDS011;10050;55.492;13.506;2023-09-19T08:34:25;8.20;;;2.60;;
19780;SDS011;10050;55.492;13.506;2023-09-19T08:36:51;9.53;;;2.40;;
19780;SDS011;10050;55.492;13.506;2023-09-19T08:39:21;7.07;;;2.13;;
19780;SDS011;10050;55.492;13.506;2023-09-19T08:41:57;6.87;;;2.43;;
19780;SDS011;10050;55.492;13.506;2023-09-19T08:44:26;8.40;;;2.63;;
19780;SDS011;10050;55.492;13.506;2023-09-19T08:46:55;6.57;;;2.27;;
19780;SDS011;10050;55.492;13.506;2023-09-19T08:49:33;8.27;;;2.63;;
19780;SDS011;10050;55.492;13.506;2023-09-19T08:52:16;4.93;;;1.90;;
19780;SDS011;10050;55.492;13.506;2023-09-19T08:54:48;4.77;;;2.00;;
19780;SDS011;10050;55.492;13.506;2023-09-19T08:57:18;6.80;;;2.23;;
19780;SDS011;10050;55.492;13.506;2023-09-19T08:59:47;4.00;;;2.10;;
19780;SDS011;10050;55.492;13.506;2023-09-19T09:02:15;4.07;;;1.80;;
19780;SDS011;10050;55.492;13.506;2023-09-19T09:04:44;6.67;;;2.00;;
19780;SDS011;10050;55.492;13.506;2023-09-19T09:07:12;6.47;;;2.13;;
19780;SDS011;10050;55.492;13.506;2023-09-19T09:09:39;10.37;;;2.03;;
19780;SDS011;10050;55.492;13.506;2023-09-19T09:12:11;5.90;;;1.80;;
19780;SDS011;10050;55.492;13.506;2023-09-19T09:14:38;5.23;;;1.63;;
19780;SDS011;10050;55.492;13.506;2023-09-19T09:17:15;5.43;;;1.90;;
19780;SDS011;10050;55.492;13.506;2023-09-19T09:19:45;6.80;;;1.63;;
19780;SDS011;10050;55.492;13.506;2023-09-19T09:22:12;6.70;;;1.70;;
19780;SDS011;10050;55.492;13.506;2023-09-19T09:24:39;3.17;;;1.70;;
19780;SDS011;10050;55.492;13.506;2023-09-19T09:27:18;2.97;;;1.50;;
19780;SDS011;10050;55.492;13.506;2023-09-19T09:29:45;2.47;;;1.40;;
19780;SDS011;10050;55.492;13.506;2023-09-19T09:32:27;3.23;;;1.57;;
19780;SDS011;10050;55.492;13.506;2023-09-19T09:34:58;3.27;;;1.40;;
19780;SDS011;10050;55.492;13.506;2023-09-19T09:37:25;4.87;;;1.90;;
19780;SDS011;10050;55.492;13.506;2023-09-19T09:39:59;3.27;;;1.40;;
19780;SDS011;10050;55.492;13.506;2023-09-19T09:42:44;7.07;;;2.30;;
19780;SDS011;10050;55.492;13.506;2023-09-19T09:45:18;2.77;;;1.33;;
19780;SDS011;10050;55.492;13.506;2023-09-19T09:47:53;3.40;;;1.47;;
19780;SDS011;10050;55.492;13.506;2023-09-19T09:52:57;3.13;;;1.20;;
19780;SDS011;10050;55.492;13.506;2023-09-19T09:56:14;2.13;;;1.20;;
19780;SDS011;10050;55.492;13.506;2023-09-19T09:58:27;2.30;;;1.10;;
19780;SDS011;10050;55.492;13.506;2023-09-19T10:01:03;2.80;;;1.10;;
19780;SDS011;10050;55.492;13.506;2023-09-19T10:03:40;3.33;;;1.40;;
19780;SDS011;10050;55.492;13.506;2023-09-19T10:06:12;3.53;;;1.23;;
19780;SDS011;10050;55.492;13.506;2023-09-19T10:11:47;8.00;;;1.67;;
19780;SDS011;10050;55.492;13.506;2023-09-19T10:14:22;2.93;;;1.43;;
19780;SDS011;10050;55.492;13.506;2023-09-19T10:16:56;2.03;;;1.10;;
19780;SDS011;10050;55.492;13.506;2023-09-19T10:22:15;3.77;;;1.77;;
19780;SDS011;10050;55.492;13.506;2023-09-19T10:24:46;3.63;;;1.37;;
19780;SDS011;10050;55.492;13.506;2023-09-19T10:27:15;3.43;;;1.63;;
19780;SDS011;10050;55.492;13.506;2023-09-19T10:29:42;3.63;;;1.73;;
19780;SDS011;10050;55.492;13.506;2023-09-19T10:32:12;6.17;;;1.60;;
19780;SDS011;10050;55.492;13.506;2023-09-19T10:34:44;5.27;;;1.67;;
19780;SDS011;10050;55.492;13.506;2023-09-19T10:37:12;1.97;;;1.23;;
19780;SDS011;10050;55.492;13.506;2023-09-19T10:39:40;2.90;;;1.43;;
19780;SDS011;10050;55.492;13.506;2023-09-19T10:42:07;4.37;;;1.63;;
19780;SDS011;10050;55.492;13.506;2023-09-19T10:44:37;3.30;;;1.23;;
19780;SDS011;10050;55.492;13.506;2023-09-19T10:47:08;4.40;;;1.63;;
19780;SDS011;10050;55.492;13.506;2023-09-19T10:49:34;2.53;;;1.53;;
19780;SDS011;10050;55.492;13.506;2023-09-19T10:52:00;8.33;;;1.93;;
19780;SDS011;10050;55.492;13.506;2023-09-19T10:54:28;3.77;;;1.83;;
19780;SDS011;10050;55.492;13.506;2023-09-19T10:57:01;6.37;;;1.57;;
19780;SDS011;10050;55.492;13.506;2023-09-19T10:59:30;5.53;;;1.57;;
19780;SDS011;10050;55.492;13.506;2023-09-19T11:02:00;4.17;;;1.50;;
19780;SDS011;10050;55.492;13.506;2023-09-19T11:04:43;5.77;;;1.30;;
19780;SDS011;10050;55.492;13.506;2023-09-19T11:07:11;2.73;;;1.60;;
19780;SDS011;10050;55.492;13.506;2023-09-19T11:09:55;4.40;;;1.67;;
19780;SDS011;10050;55.492;13.506;2023-09-19T11:15:01;3.73;;;1.80;;
19780;SDS011;10050;55.492;13.506;2023-09-19T11:17:42;4.50;;;1.43;;
19780;SDS011;10050;55.492;13.506;2023-09-19T11:30:48;4.17;;;1.83;;
19780;SDS011;10050;55.492;13.506;2023-09-19T11:43:46;6.47;;;1.53;;
19780;SDS011;10050;55.492;13.506;2023-09-19T11:46:13;4.27;;;1.73;;
19780;SDS011;10050;55.492;13.506;2023-09-19T11:48:47;9.63;;;2.07;;
19780;SDS011;10050;55.492;13.506;2023-09-19T11:51:24;5.50;;;1.57;;
19780;SDS011;10050;55.492;13.506;2023-09-19T11:53:56;4.73;;;1.90;;
19780;SDS011;10050;55.492;13.506;2023-09-19T11:56:25;9.13;;;2.00;;
19780;SDS011;10050;55.492;13.506;2023-09-19T11:58:54;6.27;;;1.60;;
19780;SDS011;10050;55.492;13.506;2023-09-19T12:01:22;4.83;;;1.50;;
19780;SDS011;10050;55.492;13.506;2023-09-19T12:03:54;4.40;;;1.70;;
19780;SDS011;10050;55.492;13.506;2023-09-19T12:06:28;4.87;;;1.80;;
19780;SDS011;10050;55.492;13.506;2023-09-19T12:09:03;5.07;;;1.73;;
19780;SDS011;10050;55.492;13.506;2023-09-19T12:11:40;5.70;;;1.70;;
19780;SDS011;10050;55.492;13.506;2023-09-19T12:14:09;5.20;;;1.90;;
19780;SDS011;10050;55.492;13.506;2023-09-19T12:16:37;4.40;;;1.43;;
19780;SDS011;10050;55.492;13.506;2023-09-19T12:19:19;7.17;;;2.43;;
19780;SDS011;10050;55.492;13.506;2023-09-19T12:22:20;8.43;;;1.70;;
19780;SDS011;10050;55.492;13.506;2023-09-19T12:24:39;6.63;;;1.93;;
19780;SDS011;10050;55.492;13.506;2023-09-19T12:27:07;4.20;;;1.50;;
19780;SDS011;10050;55.492;13.506;2023-09-19T12:29:47;4.17;;;1.93;;
19780;SDS011;10050;55.492;13.506;2023-09-19T12:32:14;3.23;;;1.60;;
19780;SDS011;10050;55.492;13.506;2023-09-19T12:34:49;7.97;;;1.90;;
19780;SDS011;10050;55.492;13.506;2023-09-19T12:37:17;4.83;;;1.53;;
19780;SDS011;10050;55.492;13.506;2023-09-19T12:39:47;5.20;;;1.63;;
19780;SDS011;10050;55.492;13.506;2023-09-19T12:42:25;5.80;;;1.60;;
19780;SDS011;10050;55.492;13.506;2023-09-19T12:44:57;4.47;;;1.60;;
19780;SDS011;10050;55.492;13.506;2023-09-19T12:47:25;3.57;;;1.53;;
19780;SDS011;10050;55.492;13.506;2023-09-19T12:52:46;3.03;;;1.43;;
19780;SDS011;10050;55.492;13.506;2023-09-19T12:55:28;5.17;;;1.90;;
19780;SDS011;10050;55.492;13.506;2023-09-19T13:03:17;5.97;;;1.83;;
19780;SDS011;10050;55.492;13.506;2023-09-19T13:05:59;4.43;;;1.40;;
19780;SDS011;10050;55.492;13.506;2023-09-19T13:11:12;6.47;;;1.70;;
19780;SDS011;10050;55.492;13.506;2023-09-19T13:13:46;6.00;;;1.70;;
19780;SDS011;10050;55.492;13.506;2023-09-19T13:16:19;5.43;;;1.80;;
19780;SDS011;10050;55.492;13.506;2023-09-19T13:18:47;5.60;;;1.63;;
19780;SDS011;10050;55.492;13.506;2023-09-19T13:21:26;7.10;;;1.73;;
19780;SDS011;10050;55.492;13.506;2023-09-19T13:23:54;8.60;;;2.50;;
19780;SDS011;10050;55.492;13.506;2023-09-19T13:26:41;3.00;;;1.77;;
19780;SDS011;10050;55.492;13.506;2023-09-19T13:29:07;4.57;;;1.37;;
19780;SDS011;10050;55.492;13.506;2023-09-19T13:31:33;4.83;;;1.80;;
19780;SDS011;10050;55.492;13.506;2023-09-19T13:36:43;2.63;;;1.13;;
19780;SDS011;10050;55.492;13.506;2023-09-19T13:39:09;4.57;;;1.50;;
19780;SDS011;10050;55.492;13.506;2023-09-19T13:41:35;3.80;;;1.37;;
19780;SDS011;10050;55.492;13.506;2023-09-19T13:44:04;4.90;;;1.67;;
19780;SDS011;10050;55.492;13.506;2023-09-19T13:46:30;7.43;;;1.70;;
19780;SDS011;10050;55.492;13.506;2023-09-19T13:48:58;2.40;;;1.50;;
19780;SDS011;10050;55.492;13.506;2023-09-19T13:51:25;4.60;;;1.70;;
19780;SDS011;10050;55.492;13.506;2023-09-19T13:53:51;4.77;;;1.73;;
19780;SDS011;10050;55.492;13.506;2023-09-19T13:56:17;4.10;;;1.53;;
19780;SDS011;10050;55.492;13.506;2023-09-19T13:58:42;7.70;;;1.70;;
19780;SDS011;10050;55.492;13.506;2023-09-19T14:01:08;4.50;;;1.53;;
19780;SDS011;10050;55.492;13.506;2023-09-19T14:03:41;7.90;;;1.70;;
19780;SDS011;10050;55.492;13.506;2023-09-19T14:06:18;5.23;;;1.57;;
19780;SDS011;10050;55.492;13.506;2023-09-19T14:08:44;7.50;;;1.83;;
19780;SDS011;10050;55.492;13.506;2023-09-19T14:11:15;4.73;;;2.00;;
19780;SDS011;10050;55.492;13.506;2023-09-19T14:13:41;7.83;;;2.00;;
19780;SDS011;10050;55.492;13.506;2023-09-19T14:16:12;5.83;;;2.50;;
19780;SDS011;10050;55.492;13.506;2023-09-19T14:18:37;4.90;;;2.10;;
19780;SDS011;10050;55.492;13.506;2023-09-19T14:21:07;10.77;;;2.73;;
19780;SDS011;10050;55.492;13.506;2023-09-19T14:23:36;5.37;;;1.70;;
19780;SDS011;10050;55.492;13.506;2023-09-19T14:26:03;5.10;;;2.27;;
19780;SDS011;10050;55.492;13.506;2023-09-19T14:28:43;7.77;;;1.63;;
19780;SDS011;10050;55.492;13.506;2023-09-19T14:31:10;7.37;;;2.30;;
19780;SDS011;10050;55.492;13.506;2023-09-19T14:33:53;9.17;;;2.50;;
19780;SDS011;10050;55.492;13.506;2023-09-19T14:36:29;6.50;;;2.40;;
19780;SDS011;10050;55.492;13.506;2023-09-19T14:38:55;4.23;;;1.97;;
19780;SDS011;10050;55.492;13.506;2023-09-19T14:41:24;6.10;;;2.23;;
19780;SDS011;10050;55.492;13.506;2023-09-19T14:43:53;6.97;;;2.50;;
19780;SDS011;10050;55.492;13.506;2023-09-19T14:46:22;7.10;;;2.47;;
19780;SDS011;10050;55.492;13.506;2023-09-19T14:48:51;8.43;;;2.33;;
19780;SDS011;10050;55.492;13.506;2023-09-19T14:51:18;5.27;;;2.43;;
19780;SDS011;10050;55.492;13.506;2023-09-19T14:54:13;7.20;;;2.20;;
19780;SDS011;10050;55.492;13.506;2023-09-19T14:56:41;3.70;;;1.90;;
19780;SDS011;10050;55.492;13.506;2023-09-19T14:59:13;4.40;;;2.07;;
19780;SDS011;10050;55.492;13.506;2023-09-19T15:01:53;9.47;;;2.97;;
19780;SDS011;10050;55.492;13.506;2023-09-19T15:04:22;7.43;;;1.80;;
19780;SDS011;10050;55.492;13.506;2023-09-19T15:06:49;8.43;;;2.77;;
19780;SDS011;10050;55.492;13.506;2023-09-19T15:09:19;9.00;;;2.53;;
19780;SDS011;10050;55.492;13.506;2023-09-19T15:11:52;5.93;;;2.40;;
19780;SDS011;10050;55.492;13.506;2023-09-19T15:14:18;8.07;;;2.50;;
19780;SDS011;10050;55.492;13.506;2023-09-19T15:16:53;7.00;;;2.27;;
19780;SDS011;10050;55.492;13.506;2023-09-19T15:19:23;7.13;;;1.80;;
19780;SDS011;10050;55.492;13.506;2023-09-19T15:21:48;8.27;;;2.07;;
19780;SDS011;10050;55.492;13.506;2023-09-19T15:24:17;6.63;;;2.10;;
19780;SDS011;10050;55.492;13.506;2023-09-19T15:26:43;5.97;;;2.63;;
19780;SDS011;10050;55.492;13.506;2023-09-19T15:29:09;7.13;;;1.80;;
19780;SDS011;10050;55.492;13.506;2023-09-19T15:31:35;5.00;;;2.03;;
19780;SDS011;10050;55.492;13.506;2023-09-19T15:34:02;6.83;;;1.70;;
19780;SDS011;10050;55.492;13.506;2023-09-19T15:36:28;3.93;;;1.93;;
19780;SDS011;10050;55.492;13.506;2023-09-19T15:39:01;5.93;;;2.03;;
19780;SDS011;10050;55.492;13.506;2023-09-19T15:41:34;8.40;;;2.37;;
19780;SDS011;10050;55.492;13.506;2023-09-19T15:44:04;6.53;;;2.03;;
19780;SDS011;10050;55.492;13.506;2023-09-19T15:46:35;5.77;;;2.27;;
19780;SDS011;10050;55.492;13.506;2023-09-19T15:49:02;9.37;;;2.57;;
19780;SDS011;10050;55.492;13.506;2023-09-19T15:51:31;7.80;;;2.10;;
19780;SDS011;10050;55.492;13.506;2023-09-19T15:53:59;6.17;;;1.73;;
19780;SDS011;10050;55.492;13.506;2023-09-19T15:56:28;7.70;;;2.43;;
19780;SDS011;10050;55.492;13.506;2023-09-19T15:58:54;8.23;;;2.13;;
19780;SDS011;10050;55.492;13.506;2023-09-19T16:01:21;5.67;;;2.20;;
19780;SDS011;10050;55.492;13.506;2023-09-19T16:10:16;8.97;;;2.30;;
19780;SDS011;10050;55.492;13.506;2023-09-19T16:13:06;5.47;;;1.93;;
19780;SDS011;10050;55.492;13.506;2023-09-19T16:16:25;7.93;;;2.50;;